地図

経路データ

SID SEASON NUMBER BASIN SUBBASIN NAME ISO_TIME NATURE LAT LON WMO_WIND WMO_PRES WMO_AGENCY TRACK_TYPE DIST2LAND LANDFALL IFLAG USA_AGENCY USA_ATCF_ID USA_LAT USA_LON USA_RECORD USA_STATUS USA_WIND USA_PRES USA_SSHS USA_R34_NE USA_R34_SE USA_R34_SW USA_R34_NW USA_R50_NE USA_R50_SE USA_R50_SW USA_R50_NW USA_R64_NE USA_R64_SE USA_R64_SW USA_R64_NW USA_POCI USA_ROCI USA_RMW USA_EYE TOKYO_LAT TOKYO_LON TOKYO_GRADE TOKYO_WIND TOKYO_PRES TOKYO_R50_DIR TOKYO_R50_LONG TOKYO_R50_SHORT TOKYO_R30_DIR TOKYO_R30_LONG TOKYO_R30_SHORT TOKYO_LAND CMA_LAT CMA_LON CMA_CAT CMA_WIND CMA_PRES HKO_LAT HKO_LON HKO_CAT HKO_WIND HKO_PRES NEWDELHI_LAT NEWDELHI_LON NEWDELHI_GRADE NEWDELHI_WIND NEWDELHI_PRES NEWDELHI_CI NEWDELHI_DP NEWDELHI_POCI REUNION_LAT REUNION_LON REUNION_TYPE REUNION_WIND REUNION_PRES REUNION_TNUM REUNION_CI REUNION_RMW REUNION_R34_NE REUNION_R34_SE REUNION_R34_SW REUNION_R34_NW REUNION_R50_NE REUNION_R50_SE REUNION_R50_SW REUNION_R50_NW REUNION_R64_NE REUNION_R64_SE REUNION_R64_SW REUNION_R64_NW BOM_LAT BOM_LON BOM_TYPE BOM_WIND BOM_PRES BOM_TNUM BOM_CI BOM_RMW BOM_R34_NE BOM_R34_SE BOM_R34_SW BOM_R34_NW BOM_R50_NE BOM_R50_SE BOM_R50_SW BOM_R50_NW BOM_R64_NE BOM_R64_SE BOM_R64_SW BOM_R64_NW BOM_ROCI BOM_POCI BOM_EYE BOM_POS_METHOD BOM_PRES_METHOD NADI_LAT NADI_LON NADI_CAT NADI_WIND NADI_PRES WELLINGTON_LAT WELLINGTON_LON WELLINGTON_WIND WELLINGTON_PRES DS824_LAT DS824_LON DS824_STAGE DS824_WIND DS824_PRES TD9636_LAT TD9636_LON TD9636_STAGE TD9636_WIND TD9636_PRES TD9635_LAT TD9635_LON TD9635_WIND TD9635_PRES TD9635_ROCI NEUMANN_LAT NEUMANN_LON NEUMANN_CLASS NEUMANN_WIND NEUMANN_PRES MLC_LAT MLC_LON MLC_CLASS MLC_WIND MLC_PRES USA_GUST BOM_GUST BOM_GUST_PER REUNION_GUST REUNION_GUST_PER USA_SEAHGT USA_SEARAD_NE USA_SEARAD_SE USA_SEARAD_SW USA_SEARAD_NW STORM_SPEED STORM_DIR
1974248N15310 1974 100 NA NA ELAINE 1974-09-04 18:00:00 TS 14.7000 -50.5000 25 hurdat_atl main 1065 1035 O_____________ hurdat_atl AL131974 14.7000 -50.5000 TD 25 -1 17 271
1974248N15310 1974 100 NA NA ELAINE 1974-09-04 21:00:00 TS 14.7182 -51.3652 main 1032 1019 P_____________ AL131974 14.7182 -51.3652 TD 25 -1 16 273
1974248N15310 1974 100 NA NA ELAINE 1974-09-05 00:00:00 TS 14.8000 -52.2000 25 1012 hurdat_atl main 1020 996 O_____________ hurdat_atl AL131974 14.8000 -52.2000 TD 25 1012 -1 16 280
1974248N15310 1974 100 NA NA ELAINE 1974-09-05 03:00:00 TS 14.9847 -52.9798 main 992 938 P_____________ AL131974 14.9847 -52.9798 TD 25 -1 15 285
1974248N15310 1974 100 NA NA ELAINE 1974-09-05 06:00:00 TS 15.2000 -53.7000 25 hurdat_atl main 938 890 O_____________ hurdat_atl AL131974 15.2000 -53.7000 TD 25 -1 14 285
1974248N15310 1974 100 NA NA ELAINE 1974-09-05 09:00:00 TS 15.3348 -54.3803 main 881 843 P_____________ AL131974 15.3348 -54.3803 TD 25 -1 13 283
1974248N15310 1974 100 NA NA ELAINE 1974-09-05 12:00:00 TS 15.5000 -55.0000 25 hurdat_atl main 843 817 O_____________ hurdat_atl AL131974 15.5000 -55.0000 TD 25 -1 12 291
1974248N15310 1974 100 NA NA ELAINE 1974-09-05 15:00:00 TS 15.7697 -55.5651 main 817 802 P_____________ AL131974 15.7697 -55.5651 TD 25 -1 12 300
1974248N15310 1974 100 NA NA ELAINE 1974-09-05 18:00:00 TS 16.1000 -56.1000 25 1010 hurdat_atl main 804 791 O_____________ hurdat_atl AL131974 16.1000 -56.1000 TD 25 1010 -1 12 302
1974248N15310 1974 100 NA NA ELAINE 1974-09-05 21:00:00 TS 16.4275 -56.6652 main 789 789 P_____________ AL131974 16.4275 -56.6652 TD 27 -1 13 304
1974248N15310 1974 100 NA NA ELAINE 1974-09-06 00:00:00 TS 16.8000 -57.2000 30 hurdat_atl main 796 791 O_____________ hurdat_atl AL131974 16.8000 -57.2000 TD 30 -1 13 310
1974248N15310 1974 100 NA NA ELAINE 1974-09-06 03:00:00 TS 17.2425 -57.6949 main 810 795 P_____________ AL131974 17.2425 -57.6949 TD 30 -1 12 316
1974248N15310 1974 100 NA NA ELAINE 1974-09-06 06:00:00 TS 17.7000 -58.1000 30 hurdat_atl main 795 771 O_____________ hurdat_atl AL131974 17.7000 -58.1000 TD 30 -1 11 324
1974248N15310 1974 100 NA NA ELAINE 1974-09-06 09:00:00 TS 18.1222 -58.3579 main 760 738 P_____________ AL131974 18.1222 -58.3579 TD 30 -1 9 329
1974248N15310 1974 100 NA NA ELAINE 1974-09-06 12:00:00 TS 18.5000 -58.6000 30 hurdat_atl main 738 707 O_____________ hurdat_atl AL131974 18.5000 -58.6000 TD 30 -1 9 321
1974248N15310 1974 100 NA NA ELAINE 1974-09-06 15:00:00 TS 18.8299 -58.9551 main 697 657 P_____________ AL131974 18.8299 -58.9551 TD 30 -1 10 308
1974248N15310 1974 100 NA NA ELAINE 1974-09-06 18:00:00 TS 19.1000 -59.4000 30 hurdat_atl main 657 608 O_____________ hurdat_atl AL131974 19.1000 -59.4000 TD 30 -1 10 297
1974248N15310 1974 100 NA NA ELAINE 1974-09-06 21:00:00 TS 19.2999 -59.9129 main 608 550 P_____________ AL131974 19.2999 -59.9129 TD 30 -1 11 291
1974248N15310 1974 100 NA NA ELAINE 1974-09-07 00:00:00 TS 19.5000 -60.5000 30 hurdat_atl main 550 494 O_____________ hurdat_atl AL131974 19.5000 -60.5000 TD 30 -1 12 292
1974248N15310 1974 100 NA NA ELAINE 1974-09-07 03:00:00 TS 19.7548 -61.1205 main 498 441 P_____________ AL131974 19.7548 -61.1205 TD 30 -1 14 296
1974248N15310 1974 100 NA NA ELAINE 1974-09-07 06:00:00 TS 20.1000 -61.8000 30 hurdat_atl main 441 401 O_____________ hurdat_atl AL131974 20.1000 -61.8000 TD 30 -1 15 300
1974248N15310 1974 100 NA NA ELAINE 1974-09-07 09:00:00 TS 20.4944 -62.4994 main 401 382 P_____________ AL131974 20.4944 -62.4994 TD 30 -1 17 305
1974248N15310 1974 100 NA NA ELAINE 1974-09-07 12:00:00 TS 21.1000 -63.3000 30 hurdat_atl main 386 379 O_____________ hurdat_atl AL131974 21.1000 -63.3000 TD 30 -1 23 313
1974248N15310 1974 100 NA NA ELAINE 1974-09-07 15:00:00 TS 22.0708 -64.3051 main 435 432 P_____________ AL131974 22.0708 -64.3051 TD 30 -1 27 317
1974248N15310 1974 100 NA NA ELAINE 1974-09-07 18:00:00 TS 23.1000 -65.3000 30 hurdat_atl main 526 526 O_____________ hurdat_atl AL131974 23.1000 -65.3000 TD 30 -1 25 318
1974248N15310 1974 100 NA NA ELAINE 1974-09-07 21:00:00 TS 23.8967 -66.0760 main 611 611 P_____________ AL131974 23.8967 -66.0760 TD 30 -1 19 318
1974248N15310 1974 100 NA NA ELAINE 1974-09-08 00:00:00 TS 24.5000 -66.7000 30 hurdat_atl main 640 640 O_____________ hurdat_atl AL131974 24.5000 -66.7000 TD 30 -1 15 313
1974248N15310 1974 100 NA NA ELAINE 1974-09-08 03:00:00 TS 24.9023 -67.2685 main 654 654 P_____________ AL131974 24.9023 -67.2685 TD 30 -1 11 308
1974248N15310 1974 100 NA NA ELAINE 1974-09-08 06:00:00 TS 25.2000 -67.7000 30 hurdat_atl main 669 669 O_____________ hurdat_atl AL131974 25.2000 -67.7000 TD 30 -1 9 315
1974248N15310 1974 100 NA NA ELAINE 1974-09-08 09:00:00 TS 25.5195 -67.9511 main 690 690 P_____________ AL131974 25.5195 -67.9511 TD 30 -1 8 327
1974248N15310 1974 100 NA NA ELAINE 1974-09-08 12:00:00 TS 25.9000 -68.2000 30 hurdat_atl main 717 717 O_____________ hurdat_atl AL131974 25.9000 -68.2000 TD 30 -1 11 325
1974248N15310 1974 100 NA NA ELAINE 1974-09-08 15:00:00 TS 26.4202 -68.6622 main 727 727 P_____________ AL131974 26.4202 -68.6622 TD 30 -1 14 321
1974248N15310 1974 100 NA NA ELAINE 1974-09-08 18:00:00 TS 27.0000 -69.2000 30 1012 hurdat_atl main 753 753 O_____________ hurdat_atl AL131974 27.0000 -69.2000 TD 30 1012 -1 14 320
1974248N15310 1974 100 NA NA ELAINE 1974-09-08 21:00:00 TS 27.5123 -69.7010 main 779 779 P_____________ AL131974 27.5123 -69.7010 TD 30 1010 -1 14 321
1974248N15310 1974 100 NA NA ELAINE 1974-09-09 00:00:00 TS 28.1000 -70.2000 30 1008 hurdat_atl main 821 821 O_____________ hurdat_atl AL131974 28.1000 -70.2000 TD 30 1008 -1 17 327
1974248N15310 1974 100 NA NA ELAINE 1974-09-09 03:00:00 TS 28.9001 -70.7291 main 837 747 P_____________ AL131974 28.9001 -70.7291 TD 30 -1 18 331
1974248N15310 1974 100 NA NA ELAINE 1974-09-09 06:00:00 TS 29.7000 -71.2000 30 hurdat_atl main 747 686 O_____________ hurdat_atl AL131974 29.7000 -71.2000 TD 30 -1 15 332
1974248N15310 1974 100 NA NA ELAINE 1974-09-09 09:00:00 TS 30.2573 -71.5536 main 671 617 P_____________ AL131974 30.2573 -71.5536 TD 30 -1 12 335
1974248N15310 1974 100 NA NA ELAINE 1974-09-09 12:00:00 TS 30.8000 -71.8000 30 hurdat_atl main 617 549 O_____________ hurdat_atl AL131974 30.8000 -71.8000 TD 30 -1 13 341
1974248N15310 1974 100 NA NA ELAINE 1974-09-09 15:00:00 TS 31.5198 -72.0535 main 542 484 P_____________ AL131974 31.5198 -72.0535 TD 32 -1 15 350
1974248N15310 1974 100 NA NA ELAINE 1974-09-09 18:00:00 TS 32.3000 -72.1000 35 1010 hurdat_atl main 484 452 O_____________ hurdat_atl AL131974 32.3000 -72.1000 TS 35 1010 0 16 7
1974248N15310 1974 100 NA NA ELAINE 1974-09-09 21:00:00 TS 33.1173 -71.8218 main 452 438 P_____________ AL131974 33.1173 -71.8218 TS 40 1007 0 16 24
1974248N15310 1974 100 NA NA ELAINE 1974-09-10 00:00:00 TS 33.8000 -71.3000 45 1005 hurdat_atl main 442 442 O_____________ hurdat_atl AL131974 33.8000 -71.3000 TS 45 1005 0 15 43
1974248N15310 1974 100 NA NA ELAINE 1974-09-10 03:00:00 TS 34.1832 -70.6420 main 479 479 P_____________ AL131974 34.1832 -70.6420 TS 50 1004 0 12 61
1974248N15310 1974 100 NA NA ELAINE 1974-09-10 06:00:00 TS 34.4000 -70.0000 55 hurdat_atl main 522 522 I_____________ hurdat_atl AL131974 34.4000 -70.0000 TS 55 1003 0 9 62
1974248N15310 1974 100 NA NA ELAINE 1974-09-10 09:00:00 TS 34.6216 -69.6341 main 551 548 P_____________ AL131974 34.6216 -69.6341 TS 57 1002 0 7 55
1974248N15310 1974 100 NA NA ELAINE 1974-09-10 12:00:00 TS 34.8000 -69.3000 60 1001 hurdat_atl main 572 572 O_____________ hurdat_atl AL131974 34.8000 -69.3000 TS 60 1001 0 8 64
1974248N15310 1974 100 NA NA ELAINE 1974-09-10 15:00:00 TS 34.9571 -68.8097 main 612 612 P_____________ AL131974 34.9571 -68.8097 TS 60 1002 0 9 72
1974248N15310 1974 100 NA NA ELAINE 1974-09-10 18:00:00 TS 35.1000 -68.2000 60 hurdat_atl main 664 664 I_____________ hurdat_atl AL131974 35.1000 -68.2000 TS 60 1003 0 11 74
1974248N15310 1974 100 NA NA ELAINE 1974-09-10 21:00:00 TS 35.2727 -67.4730 main 724 724 P_____________ AL131974 35.2727 -67.4730 TS 57 1004 0 13 76
1974248N15310 1974 100 NA NA ELAINE 1974-09-11 00:00:00 TS 35.4000 -66.7000 55 1006 hurdat_atl main 757 757 O_____________ hurdat_atl AL131974 35.4000 -66.7000 TS 55 1006 0 13 83
1974248N15310 1974 100 NA NA ELAINE 1974-09-11 03:00:00 TS 35.4151 -65.9468 main 786 786 P_____________ AL131974 35.4151 -65.9468 TS 52 0 11 90
1974248N15310 1974 100 NA NA ELAINE 1974-09-11 06:00:00 TS 35.4000 -65.3000 50 hurdat_atl main 810 810 O_____________ hurdat_atl AL131974 35.4000 -65.3000 TS 50 0 9 88
1974248N15310 1974 100 NA NA ELAINE 1974-09-11 09:00:00 TS 35.4417 -64.8625 main 828 823 P_____________ AL131974 35.4417 -64.8625 TS 50 0 7 81
1974248N15310 1974 100 NA NA ELAINE 1974-09-11 12:00:00 TS 35.5000 -64.5000 50 hurdat_atl main 838 838 O_____________ hurdat_atl AL131974 35.5000 -64.5000 TS 50 0 7 81
1974248N15310 1974 100 NA NA ELAINE 1974-09-11 15:00:00 TS 35.5499 -64.0575 main 858 854 P_____________ AL131974 35.5499 -64.0575 TS 50 0 7 82
1974248N15310 1974 100 NA NA ELAINE 1974-09-11 18:00:00 TS 35.6000 -63.6000 50 hurdat_atl main 876 876 O_____________ hurdat_atl AL131974 35.6000 -63.6000 TS 50 0 7 85
1974248N15310 1974 100 NA NA ELAINE 1974-09-11 21:00:00 TS 35.6124 -63.1419 main 899 893 P_____________ AL131974 35.6124 -63.1419 TS 50 0 7 82
1974248N15310 1974 100 NA NA ELAINE 1974-09-12 00:00:00 TS 35.7000 -62.7000 50 1004 hurdat_atl main 895 881 O_____________ hurdat_atl AL131974 35.7000 -62.7000 TS 50 1004 0 8 64
1974248N15310 1974 100 NA NA ELAINE 1974-09-12 03:00:00 TS 35.9549 -62.2852 main 872 851 P_____________ AL131974 35.9549 -62.2852 TS 47 0 9 47
1974248N15310 1974 100 NA NA ELAINE 1974-09-12 06:00:00 TS 36.3000 -61.9000 45 hurdat_atl main 851 836 O_____________ hurdat_atl AL131974 36.3000 -61.9000 TS 45 0 8 43
1974248N15310 1974 100 NA NA ELAINE 1974-09-12 09:00:00 TS 36.5670 -61.5703 main 829 801 P_____________ AL131974 36.5670 -61.5703 TS 45 0 9 39
1974248N15310 1974 100 NA NA ELAINE 1974-09-12 12:00:00 TS 37.0000 -61.2000 45 hurdat_atl main 801 738 O_____________ hurdat_atl AL131974 37.0000 -61.2000 TS 45 0 14 28
1974248N15310 1974 100 NA NA ELAINE 1974-09-12 15:00:00 TS 37.8343 -60.7335 main 742 688 P_____________ AL131974 37.8343 -60.7335 TS 45 0 19 27
1974248N15310 1974 100 NA NA ELAINE 1974-09-12 18:00:00 TS 38.7000 -60.1000 45 1008 hurdat_atl main 688 669 O_____________ hurdat_atl AL131974 38.7000 -60.1000 TS 45 1008 0 18 38
1974248N15310 1974 100 NA NA ELAINE 1974-09-12 21:00:00 TS 39.2616 -59.2974 main 665 658 P_____________ AL131974 39.2616 -59.2974 TS 45 0 17 57
1974248N15310 1974 100 NA NA ELAINE 1974-09-13 00:00:00 TS 39.6000 -58.3000 45 hurdat_atl main 663 663 O_____________ hurdat_atl AL131974 39.6000 -58.3000 TS 45 0 17 75
1974248N15310 1974 100 NA NA ELAINE 1974-09-13 03:00:00 TS 39.7141 -57.1702 main 689 689 P_____________ AL131974 39.7141 -57.1702 TS 45 0 19 84
1974248N15310 1974 100 NA NA ELAINE 1974-09-13 06:00:00 TS 39.8000 -55.9000 45 hurdat_atl main 735 727 O_____________ hurdat_atl AL131974 39.8000 -55.9000 TS 45 0 21 79
1974248N15310 1974 100 NA NA ELAINE 1974-09-13 09:00:00 TS 40.0969 -54.5300 main 726 678 P_____________ AL131974 40.0969 -54.5300 TS 45 0 22 72
1974248N15310 1974 100 NA NA ELAINE 1974-09-13 12:00:00 TS 40.5000 -53.1000 45 hurdat_atl main 678 640 O_____________ hurdat_atl AL131974 40.5000 -53.1000 TS 45 0 23 68
1974248N15310 1974 100 NA NA ELAINE 1974-09-13 15:00:00 TS 40.9571 -51.6637 main 633 619 P_____________ AL131974 40.9571 -51.6637 TS 42 0 23 67
1974248N15310 1974 100 NA NA ELAINE 1974-09-13 18:00:00 TS 41.4000 -50.3000 40 hurdat_atl main 622 618 O_____________ hurdat_atl AL131974 41.4000 -50.3000 TS 40 0 21 68
1974248N15310 1974 100 NA NA ELAINE 1974-09-13 21:00:00 TS 41.7362 -49.1000 main 634 629 P_____________ AL131974 41.7362 -49.1000 TS 40 0 18 71
1974248N15310 1974 100 NA NA ELAINE 1974-09-14 00:00:00 ET 42.0000 -48.0000 40 hurdat_atl main 656 O_____________ hurdat_atl AL131974 42.0000 -48.0000 EX 40 -4 17 72

IBTrACS Databaseについて

本データベースは、米国NOAAが公開する1842年以降の世界の熱帯低気圧のベストトラックデータアーカイブInternational Best Track Archive for Climate Stewardship (IBTrACS)を、ウェブで閲覧しやすい形式に変換したものです。

最終更新日:2021-10-21